sensor_id;sensor_type;location;lat;lon;timestamp;P1;durP1;ratioP1;P2;durP2;ratioP2
22270;SDS011;11304;53.520;10.104;2024-03-22T00:02:06;19.90;;;12.25;;
22270;SDS011;11304;53.520;10.104;2024-03-22T00:04:32;20.65;;;12.20;;
22270;SDS011;11304;53.520;10.104;2024-03-22T00:06:58;20.98;;;13.27;;
22270;SDS011;11304;53.520;10.104;2024-03-22T00:09:24;16.58;;;12.52;;
22270;SDS011;11304;53.520;10.104;2024-03-22T00:11:50;19.00;;;12.82;;
22270;SDS011;11304;53.520;10.104;2024-03-22T00:14:16;19.45;;;13.00;;
22270;SDS011;11304;53.520;10.104;2024-03-22T00:16:42;17.20;;;12.10;;
22270;SDS011;11304;53.520;10.104;2024-03-22T00:19:08;19.20;;;12.85;;
22270;SDS011;11304;53.520;10.104;2024-03-22T00:21:34;17.70;;;12.15;;
22270;SDS011;11304;53.520;10.104;2024-03-22T00:24:00;20.13;;;13.07;;
22270;SDS011;11304;53.520;10.104;2024-03-22T00:26:26;16.67;;;12.90;;
22270;SDS011;11304;53.520;10.104;2024-03-22T00:28:52;21.73;;;13.43;;
22270;SDS011;11304;53.520;10.104;2024-03-22T00:31:18;22.30;;;11.90;;
22270;SDS011;11304;53.520;10.104;2024-03-22T00:33:44;19.20;;;12.95;;
22270;SDS011;11304;53.520;10.104;2024-03-22T00:36:11;20.20;;;13.13;;
22270;SDS011;11304;53.520;10.104;2024-03-22T00:38:37;21.27;;;13.75;;
22270;SDS011;11304;53.520;10.104;2024-03-22T00:41:03;17.85;;;13.43;;
22270;SDS011;11304;53.520;10.104;2024-03-22T00:43:29;20.08;;;14.10;;
22270;SDS011;11304;53.520;10.104;2024-03-22T00:45:55;18.45;;;13.88;;
22270;SDS011;11304;53.520;10.104;2024-03-22T00:48:21;22.15;;;14.23;;
22270;SDS011;11304;53.520;10.104;2024-03-22T00:50:47;24.95;;;15.45;;
22270;SDS011;11304;53.520;10.104;2024-03-22T00:53:13;22.80;;;14.45;;
22270;SDS011;11304;53.520;10.104;2024-03-22T00:55:39;20.13;;;14.23;;
22270;SDS011;11304;53.520;10.104;2024-03-22T00:58:05;19.83;;;14.52;;
22270;SDS011;11304;53.520;10.104;2024-03-22T01:00:31;23.85;;;14.85;;
22270;SDS011;11304;53.520;10.104;2024-03-22T01:02:57;23.48;;;14.10;;
22270;SDS011;11304;53.520;10.104;2024-03-22T01:05:23;23.70;;;14.32;;
22270;SDS011;11304;53.520;10.104;2024-03-22T01:07:51;20.67;;;14.90;;
22270;SDS011;11304;53.520;10.104;2024-03-22T01:10:17;25.13;;;15.05;;
22270;SDS011;11304;53.520;10.104;2024-03-22T01:12:43;22.77;;;14.77;;
22270;SDS011;11304;53.520;10.104;2024-03-22T01:15:09;25.05;;;15.00;;
22270;SDS011;11304;53.520;10.104;2024-03-22T01:17:35;19.90;;;15.15;;
22270;SDS011;11304;53.520;10.104;2024-03-22T01:20:02;20.95;;;14.55;;
22270;SDS011;11304;53.520;10.104;2024-03-22T01:22:28;23.33;;;15.40;;
22270;SDS011;11304;53.520;10.104;2024-03-22T01:24:54;27.20;;;15.90;;
22270;SDS011;11304;53.520;10.104;2024-03-22T01:27:20;25.42;;;16.08;;
22270;SDS011;11304;53.520;10.104;2024-03-22T01:29:46;21.33;;;15.60;;
22270;SDS011;11304;53.520;10.104;2024-03-22T01:32:12;25.33;;;16.45;;
22270;SDS011;11304;53.520;10.104;2024-03-22T01:34:38;24.05;;;16.05;;
22270;SDS011;11304;53.520;10.104;2024-03-22T01:37:04;23.05;;;16.10;;
22270;SDS011;11304;53.520;10.104;2024-03-22T01:39:30;28.38;;;17.95;;
22270;SDS011;11304;53.520;10.104;2024-03-22T01:41:56;27.13;;;17.63;;
22270;SDS011;11304;53.520;10.104;2024-03-22T01:44:28;24.13;;;17.30;;
22270;SDS011;11304;53.520;10.104;2024-03-22T01:46:55;26.92;;;18.08;;
22270;SDS011;11304;53.520;10.104;2024-03-22T01:49:21;24.83;;;17.83;;
22270;SDS011;11304;53.520;10.104;2024-03-22T01:51:47;27.50;;;17.70;;
22270;SDS011;11304;53.520;10.104;2024-03-22T01:54:13;24.67;;;18.30;;
22270;SDS011;11304;53.520;10.104;2024-03-22T01:56:41;23.42;;;18.15;;
22270;SDS011;11304;53.520;10.104;2024-03-22T01:59:08;25.65;;;19.70;;
22270;SDS011;11304;53.520;10.104;2024-03-22T02:01:34;26.48;;;19.77;;
22270;SDS011;11304;53.520;10.104;2024-03-22T02:04:01;28.40;;;19.50;;
22270;SDS011;11304;53.520;10.104;2024-03-22T02:06:27;28.35;;;19.58;;
22270;SDS011;11304;53.520;10.104;2024-03-22T02:08:53;28.63;;;19.45;;
22270;SDS011;11304;53.520;10.104;2024-03-22T02:11:19;27.75;;;20.23;;
22270;SDS011;11304;53.520;10.104;2024-03-22T02:13:45;28.77;;;20.98;;
22270;SDS011;11304;53.520;10.104;2024-03-22T02:16:11;28.80;;;20.73;;
22270;SDS011;11304;53.520;10.104;2024-03-22T02:18:38;27.92;;;20.42;;
22270;SDS011;11304;53.520;10.104;2024-03-22T02:21:04;26.83;;;20.55;;
22270;SDS011;11304;53.520;10.104;2024-03-22T02:28:24;30.27;;;21.75;;
22270;SDS011;11304;53.520;10.104;2024-03-22T02:30:50;29.00;;;21.55;;
22270;SDS011;11304;53.520;10.104;2024-03-22T02:33:16;25.08;;;20.80;;
22270;SDS011;11304;53.520;10.104;2024-03-22T02:35:42;29.92;;;21.63;;
22270;SDS011;11304;53.520;10.104;2024-03-22T02:38:08;28.92;;;22.60;;
22270;SDS011;11304;53.520;10.104;2024-03-22T02:40:34;31.73;;;22.92;;
22270;SDS011;11304;53.520;10.104;2024-03-22T02:43:00;33.30;;;23.10;;
22270;SDS011;11304;53.520;10.104;2024-03-22T02:45:26;33.17;;;23.48;;
22270;SDS011;11304;53.520;10.104;2024-03-22T02:47:52;33.08;;;23.48;;
22270;SDS011;11304;53.520;10.104;2024-03-22T02:50:19;31.00;;;22.55;;
22270;SDS011;11304;53.520;10.104;2024-03-22T02:52:45;34.28;;;23.65;;
22270;SDS011;11304;53.520;10.104;2024-03-22T02:55:11;33.13;;;25.20;;
22270;SDS011;11304;53.520;10.104;2024-03-22T02:57:37;35.97;;;24.05;;
22270;SDS011;11304;53.520;10.104;2024-03-22T03:00:03;32.13;;;25.33;;
22270;SDS011;11304;53.520;10.104;2024-03-22T03:02:30;32.45;;;24.85;;
22270;SDS011;11304;53.520;10.104;2024-03-22T03:04:56;34.55;;;27.25;;
22270;SDS011;11304;53.520;10.104;2024-03-22T03:07:22;32.50;;;27.15;;
22270;SDS011;11304;53.520;10.104;2024-03-22T03:09:48;36.15;;;27.23;;
22270;SDS011;11304;53.520;10.104;2024-03-22T03:12:14;37.20;;;27.80;;
22270;SDS011;11304;53.520;10.104;2024-03-22T03:14:40;36.00;;;26.80;;
22270;SDS011;11304;53.520;10.104;2024-03-22T03:17:07;40.10;;;27.73;;
22270;SDS011;11304;53.520;10.104;2024-03-22T03:19:33;38.08;;;29.23;;
22270;SDS011;11304;53.520;10.104;2024-03-22T03:21:59;37.70;;;27.20;;
22270;SDS011;11304;53.520;10.104;2024-03-22T03:24:25;38.08;;;27.95;;
22270;SDS011;11304;53.520;10.104;2024-03-22T03:26:51;43.95;;;30.52;;
22270;SDS011;11304;53.520;10.104;2024-03-22T03:29:17;36.50;;;27.98;;
22270;SDS011;11304;53.520;10.104;2024-03-22T03:31:43;38.35;;;29.33;;
22270;SDS011;11304;53.520;10.104;2024-03-22T03:34:09;39.72;;;28.83;;
22270;SDS011;11304;53.520;10.104;2024-03-22T03:36:35;39.50;;;29.75;;
22270;SDS011;11304;53.520;10.104;2024-03-22T03:39:01;38.45;;;29.73;;
22270;SDS011;11304;53.520;10.104;2024-03-22T03:41:27;42.92;;;30.38;;
22270;SDS011;11304;53.520;10.104;2024-03-22T03:43:53;41.35;;;29.90;;
22270;SDS011;11304;53.520;10.104;2024-03-22T03:46:19;46.08;;;30.17;;
22270;SDS011;11304;53.520;10.104;2024-03-22T03:48:45;41.40;;;30.25;;
22270;SDS011;11304;53.520;10.104;2024-03-22T03:51:11;43.25;;;30.35;;
22270;SDS011;11304;53.520;10.104;2024-03-22T03:53:37;42.30;;;31.05;;
22270;SDS011;11304;53.520;10.104;2024-03-22T03:56:03;43.97;;;31.88;;
22270;SDS011;11304;53.520;10.104;2024-03-22T03:58:29;44.10;;;31.65;;
22270;SDS011;11304;53.520;10.104;2024-03-22T04:00:55;46.13;;;34.15;;
22270;SDS011;11304;53.520;10.104;2024-03-22T04:03:22;40.03;;;31.35;;
22270;SDS011;11304;53.520;10.104;2024-03-22T04:05:55;44.28;;;33.03;;
22270;SDS011;11304;53.520;10.104;2024-03-22T04:08:22;44.63;;;33.28;;
22270;SDS011;11304;53.520;10.104;2024-03-22T04:10:54;44.28;;;33.90;;
22270;SDS011;11304;53.520;10.104;2024-03-22T04:13:24;42.15;;;32.50;;
22270;SDS011;11304;53.520;10.104;2024-03-22T04:15:50;45.38;;;33.10;;
22270;SDS011;11304;53.520;10.104;2024-03-22T04:18:16;46.55;;;33.90;;
22270;SDS011;11304;53.520;10.104;2024-03-22T04:20:42;42.03;;;32.88;;
22270;SDS011;11304;53.520;10.104;2024-03-22T04:23:09;46.17;;;34.38;;
22270;SDS011;11304;53.520;10.104;2024-03-22T04:25:35;44.20;;;33.08;;
22270;SDS011;11304;53.520;10.104;2024-03-22T04:28:01;48.78;;;34.28;;
22270;SDS011;11304;53.520;10.104;2024-03-22T04:30:27;44.70;;;34.08;;
22270;SDS011;11304;53.520;10.104;2024-03-22T04:32:53;47.67;;;35.85;;
22270;SDS011;11304;53.520;10.104;2024-03-22T04:35:19;51.40;;;36.75;;
22270;SDS011;11304;53.520;10.104;2024-03-22T04:37:45;50.38;;;37.83;;
22270;SDS011;11304;53.520;10.104;2024-03-22T04:40:11;45.33;;;34.45;;
22270;SDS011;11304;53.520;10.104;2024-03-22T04:42:37;51.72;;;37.17;;
22270;SDS011;11304;53.520;10.104;2024-03-22T04:45:03;52.85;;;35.88;;
22270;SDS011;11304;53.520;10.104;2024-03-22T04:47:29;49.35;;;36.05;;
22270;SDS011;11304;53.520;10.104;2024-03-22T04:49:55;44.78;;;34.30;;
22270;SDS011;11304;53.520;10.104;2024-03-22T04:52:21;41.38;;;33.65;;
22270;SDS011;11304;53.520;10.104;2024-03-22T04:54:47;43.00;;;33.28;;
22270;SDS011;11304;53.520;10.104;2024-03-22T04:57:14;50.75;;;35.80;;
22270;SDS011;11304;53.520;10.104;2024-03-22T04:59:40;48.60;;;36.80;;
22270;SDS011;11304;53.520;10.104;2024-03-22T05:02:06;47.92;;;37.15;;
22270;SDS011;11304;53.520;10.104;2024-03-22T05:04:32;51.50;;;37.25;;
22270;SDS011;11304;53.520;10.104;2024-03-22T05:06:58;52.65;;;37.40;;
22270;SDS011;11304;53.520;10.104;2024-03-22T05:09:24;48.15;;;35.80;;
22270;SDS011;11304;53.520;10.104;2024-03-22T05:11:50;52.58;;;37.45;;
22270;SDS011;11304;53.520;10.104;2024-03-22T05:14:17;48.95;;;35.92;;
22270;SDS011;11304;53.520;10.104;2024-03-22T05:16:43;49.22;;;35.33;;
22270;SDS011;11304;53.520;10.104;2024-03-22T05:19:09;48.70;;;36.92;;
22270;SDS011;11304;53.520;10.104;2024-03-22T05:21:36;47.45;;;35.28;;
22270;SDS011;11304;53.520;10.104;2024-03-22T05:24:02;51.03;;;36.42;;
22270;SDS011;11304;53.520;10.104;2024-03-22T05:26:28;49.85;;;35.78;;
22270;SDS011;11304;53.520;10.104;2024-03-22T05:28:57;53.72;;;38.03;;
22270;SDS011;11304;53.520;10.104;2024-03-22T05:31:23;49.83;;;36.22;;
22270;SDS011;11304;53.520;10.104;2024-03-22T05:33:49;49.15;;;35.53;;
22270;SDS011;11304;53.520;10.104;2024-03-22T05:36:15;50.75;;;37.58;;
22270;SDS011;11304;53.520;10.104;2024-03-22T05:38:41;50.10;;;36.55;;
22270;SDS011;11304;53.520;10.104;2024-03-22T05:41:07;54.47;;;37.78;;
22270;SDS011;11304;53.520;10.104;2024-03-22T05:43:33;53.60;;;37.95;;
22270;SDS011;11304;53.520;10.104;2024-03-22T05:45:59;51.13;;;36.60;;
22270;SDS011;11304;53.520;10.104;2024-03-22T05:48:25;55.75;;;38.60;;
22270;SDS011;11304;53.520;10.104;2024-03-22T05:50:51;55.55;;;39.92;;
22270;SDS011;11304;53.520;10.104;2024-03-22T05:53:17;57.05;;;41.05;;
22270;SDS011;11304;53.520;10.104;2024-03-22T05:55:43;56.90;;;41.88;;
22270;SDS011;11304;53.520;10.104;2024-03-22T05:58:09;61.05;;;42.13;;
22270;SDS011;11304;53.520;10.104;2024-03-22T06:00:35;63.65;;;43.33;;
22270;SDS011;11304;53.520;10.104;2024-03-22T06:03:02;62.78;;;44.22;;
22270;SDS011;11304;53.520;10.104;2024-03-22T06:05:28;59.83;;;43.20;;
22270;SDS011;11304;53.520;10.104;2024-03-22T06:07:54;59.75;;;42.50;;
22270;SDS011;11304;53.520;10.104;2024-03-22T06:10:20;60.95;;;42.17;;
22270;SDS011;11304;53.520;10.104;2024-03-22T06:12:47;62.63;;;44.05;;
22270;SDS011;11304;53.520;10.104;2024-03-22T06:15:13;63.17;;;43.08;;
22270;SDS011;11304;53.520;10.104;2024-03-22T06:17:39;63.65;;;43.33;;
22270;SDS011;11304;53.520;10.104;2024-03-22T06:20:07;61.95;;;43.92;;
22270;SDS011;11304;53.520;10.104;2024-03-22T06:22:34;65.07;;;44.85;;
22270;SDS011;11304;53.520;10.104;2024-03-22T06:25:01;64.70;;;44.33;;
22270;SDS011;11304;53.520;10.104;2024-03-22T06:27:27;65.78;;;44.45;;
22270;SDS011;11304;53.520;10.104;2024-03-22T06:29:53;64.07;;;45.15;;
22270;SDS011;11304;53.520;10.104;2024-03-22T06:32:19;63.10;;;43.50;;
22270;SDS011;11304;53.520;10.104;2024-03-22T06:34:45;63.53;;;44.38;;
22270;SDS011;11304;53.520;10.104;2024-03-22T06:37:11;61.80;;;44.13;;
22270;SDS011;11304;53.520;10.104;2024-03-22T06:39:37;68.93;;;44.92;;
22270;SDS011;11304;53.520;10.104;2024-03-22T06:42:03;66.53;;;45.95;;
22270;SDS011;11304;53.520;10.104;2024-03-22T06:44:30;66.03;;;45.22;;
22270;SDS011;11304;53.520;10.104;2024-03-22T06:46:56;65.43;;;43.60;;
22270;SDS011;11304;53.520;10.104;2024-03-22T06:49:22;63.83;;;43.40;;
22270;SDS011;11304;53.520;10.104;2024-03-22T06:51:48;65.53;;;46.00;;
22270;SDS011;11304;53.520;10.104;2024-03-22T06:54:14;63.90;;;44.92;;
22270;SDS011;11304;53.520;10.104;2024-03-22T06:56:40;70.70;;;45.45;;
22270;SDS011;11304;53.520;10.104;2024-03-22T06:59:06;64.80;;;46.40;;
22270;SDS011;11304;53.520;10.104;2024-03-22T07:01:32;64.97;;;44.67;;
22270;SDS011;11304;53.520;10.104;2024-03-22T07:03:58;65.85;;;46.13;;
22270;SDS011;11304;53.520;10.104;2024-03-22T07:06:24;62.88;;;43.97;;
22270;SDS011;11304;53.520;10.104;2024-03-22T07:08:50;63.67;;;44.42;;
22270;SDS011;11304;53.520;10.104;2024-03-22T07:11:16;64.85;;;45.08;;
22270;SDS011;11304;53.520;10.104;2024-03-22T07:13:42;63.75;;;44.42;;
22270;SDS011;11304;53.520;10.104;2024-03-22T07:16:08;61.95;;;44.70;;
22270;SDS011;11304;53.520;10.104;2024-03-22T07:18:35;65.20;;;45.08;;
22270;SDS011;11304;53.520;10.104;2024-03-22T07:21:01;64.22;;;45.40;;
22270;SDS011;11304;53.520;10.104;2024-03-22T07:23:28;63.22;;;45.03;;
22270;SDS011;11304;53.520;10.104;2024-03-22T07:25:54;64.93;;;45.75;;
22270;SDS011;11304;53.520;10.104;2024-03-22T07:28:20;67.10;;;44.65;;
22270;SDS011;11304;53.520;10.104;2024-03-22T07:30:46;64.93;;;45.20;;
22270;SDS011;11304;53.520;10.104;2024-03-22T07:33:13;65.95;;;46.97;;
22270;SDS011;11304;53.520;10.104;2024-03-22T07:35:41;62.22;;;44.78;;
22270;SDS011;11304;53.520;10.104;2024-03-22T07:38:07;64.80;;;46.45;;
22270;SDS011;11304;53.520;10.104;2024-03-22T07:40:33;64.55;;;46.50;;
22270;SDS011;11304;53.520;10.104;2024-03-22T07:42:59;67.40;;;46.10;;
22270;SDS011;11304;53.520;10.104;2024-03-22T07:45:31;66.05;;;45.75;;
22270;SDS011;11304;53.520;10.104;2024-03-22T07:47:57;65.25;;;45.47;;
22270;SDS011;11304;53.520;10.104;2024-03-22T07:50:23;66.55;;;47.00;;
22270;SDS011;11304;53.520;10.104;2024-03-22T07:52:49;71.10;;;47.03;;
22270;SDS011;11304;53.520;10.104;2024-03-22T07:55:15;69.30;;;47.30;;
22270;SDS011;11304;53.520;10.104;2024-03-22T07:57:41;65.43;;;47.42;;
22270;SDS011;11304;53.520;10.104;2024-03-22T08:00:07;65.68;;;45.92;;
22270;SDS011;11304;53.520;10.104;2024-03-22T08:02:34;66.05;;;46.97;;
22270;SDS011;11304;53.520;10.104;2024-03-22T08:05:00;68.32;;;47.42;;
22270;SDS011;11304;53.520;10.104;2024-03-22T08:07:26;66.88;;;47.83;;
22270;SDS011;11304;53.520;10.104;2024-03-22T08:09:53;64.85;;;45.67;;
22270;SDS011;11304;53.520;10.104;2024-03-22T08:12:20;62.45;;;45.88;;
22270;SDS011;11304;53.520;10.104;2024-03-22T08:14:46;65.40;;;45.00;;
22270;SDS011;11304;53.520;10.104;2024-03-22T08:17:12;63.67;;;44.15;;
22270;SDS011;11304;53.520;10.104;2024-03-22T08:19:39;63.20;;;44.25;;
22270;SDS011;11304;53.520;10.104;2024-03-22T08:22:05;64.90;;;44.83;;
22270;SDS011;11304;53.520;10.104;2024-03-22T08:24:31;65.38;;;44.67;;
22270;SDS011;11304;53.520;10.104;2024-03-22T08:26:58;67.43;;;44.92;;
22270;SDS011;11304;53.520;10.104;2024-03-22T08:29:24;66.93;;;45.65;;
22270;SDS011;11304;53.520;10.104;2024-03-22T08:31:50;63.55;;;45.90;;
22270;SDS011;11304;53.520;10.104;2024-03-22T08:34:16;64.57;;;43.97;;
22270;SDS011;11304;53.520;10.104;2024-03-22T08:36:42;66.85;;;46.13;;
22270;SDS011;11304;53.520;10.104;2024-03-22T08:39:08;64.15;;;44.75;;
22270;SDS011;11304;53.520;10.104;2024-03-22T08:41:35;62.67;;;42.55;;
22270;SDS011;11304;53.520;10.104;2024-03-22T08:44:01;66.93;;;45.55;;
22270;SDS011;11304;53.520;10.104;2024-03-22T08:46:27;69.20;;;44.47;;
22270;SDS011;11304;53.520;10.104;2024-03-22T08:48:53;67.85;;;45.17;;
22270;SDS011;11304;53.520;10.104;2024-03-22T08:51:20;67.63;;;45.13;;
22270;SDS011;11304;53.520;10.104;2024-03-22T08:53:46;64.78;;;44.47;;
22270;SDS011;11304;53.520;10.104;2024-03-22T08:56:12;65.68;;;44.08;;
22270;SDS011;11304;53.520;10.104;2024-03-22T08:58:38;72.32;;;47.58;;
22270;SDS011;11304;53.520;10.104;2024-03-22T09:01:05;64.43;;;45.28;;
22270;SDS011;11304;53.520;10.104;2024-03-22T09:03:31;76.30;;;46.83;;
22270;SDS011;11304;53.520;10.104;2024-03-22T09:05:57;70.63;;;45.78;;
22270;SDS011;11304;53.520;10.104;2024-03-22T09:08:23;68.18;;;45.08;;
22270;SDS011;11304;53.520;10.104;2024-03-22T09:10:49;67.72;;;45.60;;
22270;SDS011;11304;53.520;10.104;2024-03-22T09:13:15;67.55;;;46.10;;
22270;SDS011;11304;53.520;10.104;2024-03-22T09:15:41;68.03;;;45.38;;
22270;SDS011;11304;53.520;10.104;2024-03-22T09:18:07;67.63;;;46.45;;
22270;SDS011;11304;53.520;10.104;2024-03-22T09:20:33;73.07;;;46.45;;
22270;SDS011;11304;53.520;10.104;2024-03-22T09:22:59;65.68;;;44.60;;
22270;SDS011;11304;53.520;10.104;2024-03-22T09:25:25;64.72;;;44.08;;
22270;SDS011;11304;53.520;10.104;2024-03-22T09:27:51;64.88;;;42.38;;
22270;SDS011;11304;53.520;10.104;2024-03-22T09:30:18;61.67;;;40.70;;
22270;SDS011;11304;53.520;10.104;2024-03-22T09:32:44;61.90;;;40.33;;
22270;SDS011;11304;53.520;10.104;2024-03-22T09:35:11;61.63;;;40.25;;
22270;SDS011;11304;53.520;10.104;2024-03-22T09:37:39;70.30;;;43.20;;
22270;SDS011;11304;53.520;10.104;2024-03-22T09:40:05;55.72;;;39.53;;
22270;SDS011;11304;53.520;10.104;2024-03-22T09:42:33;57.58;;;39.08;;
22270;SDS011;11304;53.520;10.104;2024-03-22T09:44:59;61.13;;;40.15;;
22270;SDS011;11304;53.520;10.104;2024-03-22T09:47:25;61.97;;;39.60;;
22270;SDS011;11304;53.520;10.104;2024-03-22T09:49:52;60.15;;;40.70;;
22270;SDS011;11304;53.520;10.104;2024-03-22T09:52:18;65.75;;;41.88;;
22270;SDS011;11304;53.520;10.104;2024-03-22T09:54:45;65.03;;;41.92;;
22270;SDS011;11304;53.520;10.104;2024-03-22T09:57:13;61.38;;;41.20;;
22270;SDS011;11304;53.520;10.104;2024-03-22T09:59:42;64.75;;;41.78;;
22270;SDS011;11304;53.520;10.104;2024-03-22T10:02:10;65.45;;;41.67;;
22270;SDS011;11304;53.520;10.104;2024-03-22T10:04:37;63.00;;;41.80;;
22270;SDS011;11304;53.520;10.104;2024-03-22T10:07:03;62.45;;;40.63;;
22270;SDS011;11304;53.520;10.104;2024-03-22T10:09:30;64.18;;;39.72;;
22270;SDS011;11304;53.520;10.104;2024-03-22T10:11:56;62.58;;;40.35;;
22270;SDS011;11304;53.520;10.104;2024-03-22T10:14:22;62.85;;;40.20;;
22270;SDS011;11304;53.520;10.104;2024-03-22T10:16:52;54.17;;;38.33;;
22270;SDS011;11304;53.520;10.104;2024-03-22T10:19:19;57.38;;;35.88;;
22270;SDS011;11304;53.520;10.104;2024-03-22T10:21:45;50.88;;;35.15;;
22270;SDS011;11304;53.520;10.104;2024-03-22T10:24:11;53.55;;;35.97;;
22270;SDS011;11304;53.520;10.104;2024-03-22T10:26:37;46.60;;;33.60;;
22270;SDS011;11304;53.520;10.104;2024-03-22T10:29:05;46.90;;;33.50;;
22270;SDS011;11304;53.520;10.104;2024-03-22T10:31:31;47.08;;;32.45;;
22270;SDS011;11304;53.520;10.104;2024-03-22T10:33:59;45.60;;;30.60;;
22270;SDS011;11304;53.520;10.104;2024-03-22T10:36:26;42.05;;;29.65;;
22270;SDS011;11304;53.520;10.104;2024-03-22T10:38:52;41.65;;;27.92;;
22270;SDS011;11304;53.520;10.104;2024-03-22T10:41:19;44.97;;;30.33;;
22270;SDS011;11304;53.520;10.104;2024-03-22T10:43:45;41.30;;;27.83;;
22270;SDS011;11304;53.520;10.104;2024-03-22T10:46:11;39.63;;;28.23;;
22270;SDS011;11304;53.520;10.104;2024-03-22T10:48:37;38.05;;;27.80;;
22270;SDS011;11304;53.520;10.104;2024-03-22T10:51:05;36.28;;;25.33;;
22270;SDS011;11304;53.520;10.104;2024-03-22T10:53:32;34.95;;;24.58;;
22270;SDS011;11304;53.520;10.104;2024-03-22T10:55:58;32.47;;;23.63;;
22270;SDS011;11304;53.520;10.104;2024-03-22T10:58:25;36.55;;;24.83;;
22270;SDS011;11304;53.520;10.104;2024-03-22T11:00:51;33.38;;;23.90;;
22270;SDS011;11304;53.520;10.104;2024-03-22T11:03:24;32.78;;;23.70;;
22270;SDS011;11304;53.520;10.104;2024-03-22T11:05:54;33.83;;;22.77;;
22270;SDS011;11304;53.520;10.104;2024-03-22T11:08:27;35.17;;;23.98;;
22270;SDS011;11304;53.520;10.104;2024-03-22T11:10:54;32.88;;;21.35;;
22270;SDS011;11304;53.520;10.104;2024-03-22T11:13:20;28.85;;;21.15;;
22270;SDS011;11304;53.520;10.104;2024-03-22T11:15:49;31.60;;;21.80;;
22270;SDS011;11304;53.520;10.104;2024-03-22T11:18:16;31.73;;;21.73;;
22270;SDS011;11304;53.520;10.104;2024-03-22T11:20:42;29.85;;;20.08;;
22270;SDS011;11304;53.520;10.104;2024-03-22T11:23:10;27.65;;;20.85;;
22270;SDS011;11304;53.520;10.104;2024-03-22T11:25:36;27.25;;;20.58;;
22270;SDS011;11304;53.520;10.104;2024-03-22T11:28:02;29.05;;;20.05;;
22270;SDS011;11304;53.520;10.104;2024-03-22T11:30:28;27.42;;;20.13;;
22270;SDS011;11304;53.520;10.104;2024-03-22T11:32:54;28.05;;;19.77;;
22270;SDS011;11304;53.520;10.104;2024-03-22T11:35:21;25.90;;;18.88;;
22270;SDS011;11304;53.520;10.104;2024-03-22T11:37:48;27.35;;;19.00;;
22270;SDS011;11304;53.520;10.104;2024-03-22T11:40:15;26.23;;;18.83;;
22270;SDS011;11304;53.520;10.104;2024-03-22T11:42:42;25.35;;;19.33;;
22270;SDS011;11304;53.520;10.104;2024-03-22T11:45:10;28.27;;;19.53;;
22270;SDS011;11304;53.520;10.104;2024-03-22T11:47:36;23.30;;;18.20;;
22270;SDS011;11304;53.520;10.104;2024-03-22T11:50:03;26.08;;;18.45;;
22270;SDS011;11304;53.520;10.104;2024-03-22T11:52:29;24.13;;;18.92;;
22270;SDS011;11304;53.520;10.104;2024-03-22T11:54:55;23.75;;;18.25;;
22270;SDS011;11304;53.520;10.104;2024-03-22T11:57:22;28.77;;;19.00;;
22270;SDS011;11304;53.520;10.104;2024-03-22T11:59:48;25.25;;;18.08;;
22270;SDS011;11304;53.520;10.104;2024-03-22T12:02:14;25.63;;;17.88;;
22270;SDS011;11304;53.520;10.104;2024-03-22T12:04:47;23.10;;;16.92;;
22270;SDS011;11304;53.520;10.104;2024-03-22T12:07:13;25.27;;;17.60;;
22270;SDS011;11304;53.520;10.104;2024-03-22T12:09:42;22.15;;;16.80;;
22270;SDS011;11304;53.520;10.104;2024-03-22T12:12:09;23.58;;;15.63;;
22270;SDS011;11304;53.520;10.104;2024-03-22T12:14:36;20.08;;;15.15;;
22270;SDS011;11304;53.520;10.104;2024-03-22T12:17:02;21.13;;;14.50;;
22270;SDS011;11304;53.520;10.104;2024-03-22T12:19:28;18.98;;;14.63;;
22270;SDS011;11304;53.520;10.104;2024-03-22T12:21:54;18.65;;;14.13;;
22270;SDS011;11304;53.520;10.104;2024-03-22T12:24:21;19.05;;;13.38;;
22270;SDS011;11304;53.520;10.104;2024-03-22T12:26:47;18.08;;;14.05;;
22270;SDS011;11304;53.520;10.104;2024-03-22T12:29:14;19.05;;;12.55;;
22270;SDS011;11304;53.520;10.104;2024-03-22T12:31:40;18.30;;;12.05;;
22270;SDS011;11304;53.520;10.104;2024-03-22T12:34:07;16.35;;;11.80;;
22270;SDS011;11304;53.520;10.104;2024-03-22T12:36:33;16.08;;;10.90;;
22270;SDS011;11304;53.520;10.104;2024-03-22T12:38:59;18.60;;;12.18;;
22270;SDS011;11304;53.520;10.104;2024-03-22T12:41:25;18.35;;;11.65;;
22270;SDS011;11304;53.520;10.104;2024-03-22T12:43:51;15.45;;;11.10;;
22270;SDS011;11304;53.520;10.104;2024-03-22T12:46:17;14.18;;;10.88;;
22270;SDS011;11304;53.520;10.104;2024-03-22T12:48:43;15.88;;;10.73;;
22270;SDS011;11304;53.520;10.104;2024-03-22T12:51:09;19.08;;;11.60;;
22270;SDS011;11304;53.520;10.104;2024-03-22T12:53:36;16.35;;;11.50;;
22270;SDS011;11304;53.520;10.104;2024-03-22T12:56:02;16.02;;;10.73;;
22270;SDS011;11304;53.520;10.104;2024-03-22T12:58:29;23.27;;;12.32;;
22270;SDS011;11304;53.520;10.104;2024-03-22T13:00:55;14.95;;;11.15;;
22270;SDS011;11304;53.520;10.104;2024-03-22T13:03:21;15.43;;;10.88;;
22270;SDS011;11304;53.520;10.104;2024-03-22T13:05:47;15.10;;;11.50;;
22270;SDS011;11304;53.520;10.104;2024-03-22T13:08:13;14.15;;;11.93;;
22270;SDS011;11304;53.520;10.104;2024-03-22T13:10:39;19.67;;;13.98;;
22270;SDS011;11304;53.520;10.104;2024-03-22T13:13:08;17.48;;;14.90;;
22270;SDS011;11304;53.520;10.104;2024-03-22T13:15:34;15.10;;;13.50;;
22270;SDS011;11304;53.520;10.104;2024-03-22T13:18:02;18.00;;;13.30;;
22270;SDS011;11304;53.520;10.104;2024-03-22T13:20:28;16.95;;;12.73;;
22270;SDS011;11304;53.520;10.104;2024-03-22T13:22:54;16.27;;;12.10;;
22270;SDS011;11304;53.520;10.104;2024-03-22T13:25:20;15.05;;;12.30;;
22270;SDS011;11304;53.520;10.104;2024-03-22T13:27:46;11.02;;;9.70;;
22270;SDS011;11304;53.520;10.104;2024-03-22T13:30:12;9.63;;;8.30;;
22270;SDS011;11304;53.520;10.104;2024-03-22T13:32:39;8.23;;;6.97;;
22270;SDS011;11304;53.520;10.104;2024-03-22T13:35:06;6.38;;;4.80;;
22270;SDS011;11304;53.520;10.104;2024-03-22T13:37:32;5.68;;;4.93;;
22270;SDS011;11304;53.520;10.104;2024-03-22T13:39:58;6.93;;;3.90;;
22270;SDS011;11304;53.520;10.104;2024-03-22T13:42:25;7.13;;;3.50;;
22270;SDS011;11304;53.520;10.104;2024-03-22T13:44:52;3.40;;;2.40;;
22270;SDS011;11304;53.520;10.104;2024-03-22T13:47:18;3.60;;;2.28;;
22270;SDS011;11304;53.520;10.104;2024-03-22T13:49:44;2.97;;;2.35;;
22270;SDS011;11304;53.520;10.104;2024-03-22T13:52:10;3.03;;;2.60;;
22270;SDS011;11304;53.520;10.104;2024-03-22T13:54:36;2.97;;;2.67;;
22270;SDS011;11304;53.520;10.104;2024-03-22T13:57:03;3.83;;;3.40;;
22270;SDS011;11304;53.520;10.104;2024-03-22T13:59:29;6.60;;;5.32;;
22270;SDS011;11304;53.520;10.104;2024-03-22T14:01:55;5.05;;;4.55;;
22270;SDS011;11304;53.520;10.104;2024-03-22T14:04:25;6.95;;;5.55;;
22270;SDS011;11304;53.520;10.104;2024-03-22T14:06:51;6.63;;;6.03;;
22270;SDS011;11304;53.520;10.104;2024-03-22T14:09:17;8.60;;;7.03;;
22270;SDS011;11304;53.520;10.104;2024-03-22T14:11:44;8.23;;;7.43;;